sensor_id;sensor_type;location;lat;lon;timestamp;P1;durP1;ratioP1;P2;durP2;ratioP2
2326;SDS011;1174;51.588;7.328;2023-04-25T00:02:10;5.80;;;3.30;;
2326;SDS011;1174;51.588;7.328;2023-04-25T00:04:39;5.20;;;2.90;;
2326;SDS011;1174;51.588;7.328;2023-04-25T00:07:06;4.17;;;2.47;;
2326;SDS011;1174;51.588;7.328;2023-04-25T00:09:44;3.63;;;2.03;;
2326;SDS011;1174;51.588;7.328;2023-04-25T00:12:11;12.40;;;2.53;;
2326;SDS011;1174;51.588;7.328;2023-04-25T00:14:39;4.87;;;2.30;;
2326;SDS011;1174;51.588;7.328;2023-04-25T00:17:06;2.00;;;1.80;;
2326;SDS011;1174;51.588;7.328;2023-04-25T00:19:39;2.50;;;1.50;;
2326;SDS011;1174;51.588;7.328;2023-04-25T00:22:05;5.07;;;3.87;;
2326;SDS011;1174;51.588;7.328;2023-04-25T00:24:32;3.57;;;2.17;;
2326;SDS011;1174;51.588;7.328;2023-04-25T00:27:01;3.83;;;2.13;;
2326;SDS011;1174;51.588;7.328;2023-04-25T00:29:30;5.20;;;2.50;;
2326;SDS011;1174;51.588;7.328;2023-04-25T00:31:58;7.33;;;2.43;;
2326;SDS011;1174;51.588;7.328;2023-04-25T00:34:25;7.10;;;2.97;;
2326;SDS011;1174;51.588;7.328;2023-04-25T00:36:54;3.10;;;2.10;;
2326;SDS011;1174;51.588;7.328;2023-04-25T00:39:22;4.23;;;2.80;;
2326;SDS011;1174;51.588;7.328;2023-04-25T00:41:54;4.97;;;2.50;;
2326;SDS011;1174;51.588;7.328;2023-04-25T00:44:21;3.87;;;2.70;;
2326;SDS011;1174;51.588;7.328;2023-04-25T00:46:52;4.60;;;2.97;;
2326;SDS011;1174;51.588;7.328;2023-04-25T00:49:19;3.10;;;2.87;;
2326;SDS011;1174;51.588;7.328;2023-04-25T00:51:47;8.97;;;3.87;;
2326;SDS011;1174;51.588;7.328;2023-04-25T00:54:16;3.10;;;2.40;;
2326;SDS011;1174;51.588;7.328;2023-04-25T00:56:43;5.47;;;2.90;;
2326;SDS011;1174;51.588;7.328;2023-04-25T00:59:11;6.70;;;3.27;;
2326;SDS011;1174;51.588;7.328;2023-04-25T01:01:39;9.47;;;2.63;;
2326;SDS011;1174;51.588;7.328;2023-04-25T01:04:07;3.20;;;2.70;;
2326;SDS011;1174;51.588;7.328;2023-04-25T01:06:35;3.10;;;1.60;;
2326;SDS011;1174;51.588;7.328;2023-04-25T01:09:02;3.60;;;1.90;;
2326;SDS011;1174;51.588;7.328;2023-04-25T01:11:31;4.03;;;1.97;;
2326;SDS011;1174;51.588;7.328;2023-04-25T01:13:58;2.97;;;2.77;;
2326;SDS011;1174;51.588;7.328;2023-04-25T01:16:27;4.17;;;2.90;;
2326;SDS011;1174;51.588;7.328;2023-04-25T01:18:55;3.00;;;2.07;;
2326;SDS011;1174;51.588;7.328;2023-04-25T01:21:24;5.23;;;2.47;;
2326;SDS011;1174;51.588;7.328;2023-04-25T01:23:54;4.67;;;2.43;;
2326;SDS011;1174;51.588;7.328;2023-04-25T01:26:22;3.27;;;2.27;;
2326;SDS011;1174;51.588;7.328;2023-04-25T01:28:50;2.00;;;1.50;;
2326;SDS011;1174;51.588;7.328;2023-04-25T01:31:17;3.10;;;2.17;;
2326;SDS011;1174;51.588;7.328;2023-04-25T01:33:45;6.13;;;3.10;;
2326;SDS011;1174;51.588;7.328;2023-04-25T01:36:13;6.63;;;2.37;;
2326;SDS011;1174;51.588;7.328;2023-04-25T01:38:43;3.63;;;2.73;;
2326;SDS011;1174;51.588;7.328;2023-04-25T01:41:13;4.40;;;3.00;;
2326;SDS011;1174;51.588;7.328;2023-04-25T01:43:42;4.97;;;2.00;;
2326;SDS011;1174;51.588;7.328;2023-04-25T01:46:10;5.37;;;2.43;;
2326;SDS011;1174;51.588;7.328;2023-04-25T01:48:37;9.07;;;3.27;;
2326;SDS011;1174;51.588;7.328;2023-04-25T01:51:07;2.57;;;1.57;;
2326;SDS011;1174;51.588;7.328;2023-04-25T01:53:34;5.20;;;2.57;;
2326;SDS011;1174;51.588;7.328;2023-04-25T01:56:05;2.63;;;2.03;;
2326;SDS011;1174;51.588;7.328;2023-04-25T01:58:34;4.30;;;1.80;;
2326;SDS011;1174;51.588;7.328;2023-04-25T02:01:01;2.10;;;1.40;;
2326;SDS011;1174;51.588;7.328;2023-04-25T02:03:29;6.23;;;3.43;;
2326;SDS011;1174;51.588;7.328;2023-04-25T02:05:57;3.83;;;2.40;;
2326;SDS011;1174;51.588;7.328;2023-04-25T02:08:25;2.80;;;2.03;;
2326;SDS011;1174;51.588;7.328;2023-04-25T02:10:53;4.97;;;2.17;;
2326;SDS011;1174;51.588;7.328;2023-04-25T02:13:21;2.80;;;1.83;;
2326;SDS011;1174;51.588;7.328;2023-04-25T02:15:48;6.30;;;3.47;;
2326;SDS011;1174;51.588;7.328;2023-04-25T02:18:15;3.03;;;2.20;;
2326;SDS011;1174;51.588;7.328;2023-04-25T02:20:42;6.03;;;1.93;;
2326;SDS011;1174;51.588;7.328;2023-04-25T02:23:11;12.43;;;2.60;;
2326;SDS011;1174;51.588;7.328;2023-04-25T02:25:40;4.43;;;1.87;;
2326;SDS011;1174;51.588;7.328;2023-04-25T02:28:07;4.17;;;2.30;;
2326;SDS011;1174;51.588;7.328;2023-04-25T02:30:37;5.43;;;2.63;;
2326;SDS011;1174;51.588;7.328;2023-04-25T02:33:05;3.77;;;2.63;;
2326;SDS011;1174;51.588;7.328;2023-04-25T02:35:32;8.73;;;3.00;;
2326;SDS011;1174;51.588;7.328;2023-04-25T02:38:00;6.13;;;3.50;;
2326;SDS011;1174;51.588;7.328;2023-04-25T02:40:28;12.10;;;2.93;;
2326;SDS011;1174;51.588;7.328;2023-04-25T02:42:55;7.23;;;3.30;;
2326;SDS011;1174;51.588;7.328;2023-04-25T02:45:22;7.70;;;3.10;;
2326;SDS011;1174;51.588;7.328;2023-04-25T02:47:51;7.87;;;3.33;;
2326;SDS011;1174;51.588;7.328;2023-04-25T02:50:19;5.60;;;3.90;;
2326;SDS011;1174;51.588;7.328;2023-04-25T02:52:47;3.73;;;2.20;;
2326;SDS011;1174;51.588;7.328;2023-04-25T02:55:14;5.50;;;2.77;;
2326;SDS011;1174;51.588;7.328;2023-04-25T02:57:43;3.20;;;2.70;;
2326;SDS011;1174;51.588;7.328;2023-04-25T03:00:12;4.27;;;2.60;;
2326;SDS011;1174;51.588;7.328;2023-04-25T03:02:42;5.83;;;2.90;;
2326;SDS011;1174;51.588;7.328;2023-04-25T03:05:10;5.97;;;3.50;;
2326;SDS011;1174;51.588;7.328;2023-04-25T03:07:37;3.37;;;3.03;;
2326;SDS011;1174;51.588;7.328;2023-04-25T03:10:06;6.23;;;3.20;;
2326;SDS011;1174;51.588;7.328;2023-04-25T03:12:33;12.03;;;4.07;;
2326;SDS011;1174;51.588;7.328;2023-04-25T03:15:00;9.60;;;3.57;;
2326;SDS011;1174;51.588;7.328;2023-04-25T03:17:27;5.70;;;3.20;;
2326;SDS011;1174;51.588;7.328;2023-04-25T03:19:55;5.73;;;2.77;;
2326;SDS011;1174;51.588;7.328;2023-04-25T03:22:23;3.63;;;2.40;;
2326;SDS011;1174;51.588;7.328;2023-04-25T03:24:50;3.13;;;2.53;;
2326;SDS011;1174;51.588;7.328;2023-04-25T03:27:17;5.97;;;2.37;;
2326;SDS011;1174;51.588;7.328;2023-04-25T03:29:47;9.40;;;2.67;;
2326;SDS011;1174;51.588;7.328;2023-04-25T03:32:14;3.13;;;2.17;;
2326;SDS011;1174;51.588;7.328;2023-04-25T03:34:41;10.00;;;3.07;;
2326;SDS011;1174;51.588;7.328;2023-04-25T03:37:08;5.13;;;2.53;;
2326;SDS011;1174;51.588;7.328;2023-04-25T03:39:36;4.57;;;2.57;;
2326;SDS011;1174;51.588;7.328;2023-04-25T03:42:03;5.80;;;1.93;;
2326;SDS011;1174;51.588;7.328;2023-04-25T03:44:30;9.63;;;2.97;;
2326;SDS011;1174;51.588;7.328;2023-04-25T03:46:58;5.23;;;3.03;;
2326;SDS011;1174;51.588;7.328;2023-04-25T03:49:26;3.37;;;2.40;;
2326;SDS011;1174;51.588;7.328;2023-04-25T03:51:53;5.53;;;3.07;;
2326;SDS011;1174;51.588;7.328;2023-04-25T03:54:20;2.60;;;1.73;;
2326;SDS011;1174;51.588;7.328;2023-04-25T03:56:53;2.33;;;1.90;;
2326;SDS011;1174;51.588;7.328;2023-04-25T03:59:20;5.43;;;1.90;;
2326;SDS011;1174;51.588;7.328;2023-04-25T04:01:50;8.00;;;2.40;;
2326;SDS011;1174;51.588;7.328;2023-04-25T04:04:18;10.67;;;2.17;;
2326;SDS011;1174;51.588;7.328;2023-04-25T04:06:45;2.13;;;1.90;;
2326;SDS011;1174;51.588;7.328;2023-04-25T04:09:12;4.23;;;1.83;;
2326;SDS011;1174;51.588;7.328;2023-04-25T04:11:41;3.70;;;2.90;;
2326;SDS011;1174;51.588;7.328;2023-04-25T04:14:15;2.90;;;2.00;;
2326;SDS011;1174;51.588;7.328;2023-04-25T04:16:41;4.60;;;1.97;;
2326;SDS011;1174;51.588;7.328;2023-04-25T04:19:10;2.60;;;2.40;;
2326;SDS011;1174;51.588;7.328;2023-04-25T04:21:41;3.13;;;1.60;;
2326;SDS011;1174;51.588;7.328;2023-04-25T04:24:08;8.40;;;2.00;;
2326;SDS011;1174;51.588;7.328;2023-04-25T04:26:37;2.50;;;1.37;;
2326;SDS011;1174;51.588;7.328;2023-04-25T04:29:05;8.30;;;2.27;;
2326;SDS011;1174;51.588;7.328;2023-04-25T04:31:37;4.93;;;2.93;;
2326;SDS011;1174;51.588;7.328;2023-04-25T04:34:05;2.80;;;2.50;;
2326;SDS011;1174;51.588;7.328;2023-04-25T04:36:34;5.20;;;2.13;;
2326;SDS011;1174;51.588;7.328;2023-04-25T04:39:01;2.83;;;2.33;;
2326;SDS011;1174;51.588;7.328;2023-04-25T04:41:28;2.30;;;1.57;;
2326;SDS011;1174;51.588;7.328;2023-04-25T04:44:09;2.70;;;1.90;;
2326;SDS011;1174;51.588;7.328;2023-04-25T04:50:15;8.47;;;2.70;;
2326;SDS011;1174;51.588;7.328;2023-04-25T04:53:10;6.37;;;1.80;;
2326;SDS011;1174;51.588;7.328;2023-04-25T04:55:37;4.70;;;2.23;;
2326;SDS011;1174;51.588;7.328;2023-04-25T04:58:04;4.90;;;1.80;;
2326;SDS011;1174;51.588;7.328;2023-04-25T05:00:33;6.50;;;3.30;;
2326;SDS011;1174;51.588;7.328;2023-04-25T05:03:00;3.63;;;2.20;;
2326;SDS011;1174;51.588;7.328;2023-04-25T05:05:29;4.80;;;1.47;;
2326;SDS011;1174;51.588;7.328;2023-04-25T05:07:56;4.90;;;2.80;;
2326;SDS011;1174;51.588;7.328;2023-04-25T05:10:25;5.93;;;2.43;;
2326;SDS011;1174;51.588;7.328;2023-04-25T05:12:52;3.67;;;2.40;;
2326;SDS011;1174;51.588;7.328;2023-04-25T05:15:19;6.77;;;2.40;;
2326;SDS011;1174;51.588;7.328;2023-04-25T05:17:49;10.43;;;2.83;;
2326;SDS011;1174;51.588;7.328;2023-04-25T05:20:20;3.83;;;2.63;;
2326;SDS011;1174;51.588;7.328;2023-04-25T05:22:51;6.13;;;3.20;;
2326;SDS011;1174;51.588;7.328;2023-04-25T05:25:19;8.13;;;2.87;;
2326;SDS011;1174;51.588;7.328;2023-04-25T05:27:46;9.33;;;2.10;;
2326;SDS011;1174;51.588;7.328;2023-04-25T05:30:17;6.77;;;2.60;;
2326;SDS011;1174;51.588;7.328;2023-04-25T05:32:45;6.53;;;2.00;;
2326;SDS011;1174;51.588;7.328;2023-04-25T05:35:12;3.83;;;2.33;;
2326;SDS011;1174;51.588;7.328;2023-04-25T05:37:39;3.00;;;2.00;;
2326;SDS011;1174;51.588;7.328;2023-04-25T05:40:08;3.00;;;2.27;;
2326;SDS011;1174;51.588;7.328;2023-04-25T05:42:36;4.23;;;2.37;;
2326;SDS011;1174;51.588;7.328;2023-04-25T05:45:04;4.63;;;2.53;;
2326;SDS011;1174;51.588;7.328;2023-04-25T05:47:31;7.93;;;2.90;;
2326;SDS011;1174;51.588;7.328;2023-04-25T05:50:00;9.90;;;5.47;;
2326;SDS011;1174;51.588;7.328;2023-04-25T05:52:27;7.80;;;3.33;;
2326;SDS011;1174;51.588;7.328;2023-04-25T05:54:56;5.00;;;2.83;;
2326;SDS011;1174;51.588;7.328;2023-04-25T05:57:25;11.13;;;4.10;;
2326;SDS011;1174;51.588;7.328;2023-04-25T05:59:53;3.67;;;2.20;;
2326;SDS011;1174;51.588;7.328;2023-04-25T06:02:22;3.10;;;2.27;;
2326;SDS011;1174;51.588;7.328;2023-04-25T06:04:57;3.47;;;2.10;;
2326;SDS011;1174;51.588;7.328;2023-04-25T06:07:28;6.43;;;3.20;;
2326;SDS011;1174;51.588;7.328;2023-04-25T06:09:57;5.03;;;3.70;;
2326;SDS011;1174;51.588;7.328;2023-04-25T06:12:26;7.60;;;2.90;;
2326;SDS011;1174;51.588;7.328;2023-04-25T06:14:53;3.63;;;2.67;;
2326;SDS011;1174;51.588;7.328;2023-04-25T06:17:20;3.97;;;3.13;;
2326;SDS011;1174;51.588;7.328;2023-04-25T06:19:48;8.30;;;3.03;;
2326;SDS011;1174;51.588;7.328;2023-04-25T06:22:15;5.43;;;2.50;;
2326;SDS011;1174;51.588;7.328;2023-04-25T06:24:42;4.63;;;3.37;;
2326;SDS011;1174;51.588;7.328;2023-04-25T06:27:09;3.30;;;2.70;;
2326;SDS011;1174;51.588;7.328;2023-04-25T06:29:38;22.93;;;5.10;;
2326;SDS011;1174;51.588;7.328;2023-04-25T06:32:05;4.13;;;3.30;;
2326;SDS011;1174;51.588;7.328;2023-04-25T06:34:34;5.47;;;3.03;;
2326;SDS011;1174;51.588;7.328;2023-04-25T06:37:10;4.40;;;3.20;;
2326;SDS011;1174;51.588;7.328;2023-04-25T06:39:37;10.90;;;2.77;;
2326;SDS011;1174;51.588;7.328;2023-04-25T06:42:04;6.33;;;3.20;;
2326;SDS011;1174;51.588;7.328;2023-04-25T06:44:31;15.83;;;2.63;;
2326;SDS011;1174;51.588;7.328;2023-04-25T06:47:00;3.27;;;2.97;;
2326;SDS011;1174;51.588;7.328;2023-04-25T06:49:27;2.33;;;2.00;;
2326;SDS011;1174;51.588;7.328;2023-04-25T06:51:55;5.00;;;2.70;;
2326;SDS011;1174;51.588;7.328;2023-04-25T06:54:22;12.53;;;3.33;;
2326;SDS011;1174;51.588;7.328;2023-04-25T06:56:49;2.53;;;2.30;;
2326;SDS011;1174;51.588;7.328;2023-04-25T06:59:17;4.47;;;3.00;;
2326;SDS011;1174;51.588;7.328;2023-04-25T07:01:44;3.30;;;2.03;;
2326;SDS011;1174;51.588;7.328;2023-04-25T07:04:15;8.00;;;3.70;;
2326;SDS011;1174;51.588;7.328;2023-04-25T07:06:42;9.40;;;2.60;;
2326;SDS011;1174;51.588;7.328;2023-04-25T07:09:09;10.33;;;3.97;;
2326;SDS011;1174;51.588;7.328;2023-04-25T07:11:37;12.33;;;3.10;;
2326;SDS011;1174;51.588;7.328;2023-04-25T07:14:04;10.93;;;2.60;;
2326;SDS011;1174;51.588;7.328;2023-04-25T07:16:31;7.33;;;2.70;;
2326;SDS011;1174;51.588;7.328;2023-04-25T07:18:58;3.60;;;2.10;;
2326;SDS011;1174;51.588;7.328;2023-04-25T07:21:28;14.63;;;2.47;;
2326;SDS011;1174;51.588;7.328;2023-04-25T07:23:57;11.97;;;2.33;;
2326;SDS011;1174;51.588;7.328;2023-04-25T07:26:25;13.23;;;4.03;;
2326;SDS011;1174;51.588;7.328;2023-04-25T07:28:52;4.17;;;3.60;;
2326;SDS011;1174;51.588;7.328;2023-04-25T07:31:19;4.60;;;3.10;;
2326;SDS011;1174;51.588;7.328;2023-04-25T07:33:47;3.27;;;2.60;;
2326;SDS011;1174;51.588;7.328;2023-04-25T07:36:14;4.07;;;2.60;;
2326;SDS011;1174;51.588;7.328;2023-04-25T07:38:51;3.40;;;2.73;;
2326;SDS011;1174;51.588;7.328;2023-04-25T07:41:18;3.10;;;2.33;;
2326;SDS011;1174;51.588;7.328;2023-04-25T07:43:48;3.60;;;2.00;;
2326;SDS011;1174;51.588;7.328;2023-04-25T07:46:15;4.73;;;2.43;;
2326;SDS011;1174;51.588;7.328;2023-04-25T07:48:43;2.83;;;2.30;;
2326;SDS011;1174;51.588;7.328;2023-04-25T07:51:12;2.10;;;1.63;;
2326;SDS011;1174;51.588;7.328;2023-04-25T07:53:40;13.83;;;2.27;;
2326;SDS011;1174;51.588;7.328;2023-04-25T07:56:08;4.67;;;1.63;;
2326;SDS011;1174;51.588;7.328;2023-04-25T07:58:35;9.87;;;2.63;;
2326;SDS011;1174;51.588;7.328;2023-04-25T08:01:02;1.97;;;1.77;;
2326;SDS011;1174;51.588;7.328;2023-04-25T08:03:30;7.50;;;2.73;;
2326;SDS011;1174;51.588;7.328;2023-04-25T08:05:56;6.43;;;3.33;;
2326;SDS011;1174;51.588;7.328;2023-04-25T08:08:25;4.70;;;2.00;;
2326;SDS011;1174;51.588;7.328;2023-04-25T08:10:55;11.20;;;1.70;;
2326;SDS011;1174;51.588;7.328;2023-04-25T08:13:23;3.13;;;1.70;;
2326;SDS011;1174;51.588;7.328;2023-04-25T08:15:52;2.13;;;1.87;;
2326;SDS011;1174;51.588;7.328;2023-04-25T08:18:22;3.30;;;1.90;;
2326;SDS011;1174;51.588;7.328;2023-04-25T08:20:49;4.20;;;2.03;;
2326;SDS011;1174;51.588;7.328;2023-04-25T08:23:25;4.43;;;1.80;;
2326;SDS011;1174;51.588;7.328;2023-04-25T08:25:51;4.10;;;2.80;;
2326;SDS011;1174;51.588;7.328;2023-04-25T08:28:21;1.50;;;1.17;;
2326;SDS011;1174;51.588;7.328;2023-04-25T08:30:49;1.33;;;1.20;;
2326;SDS011;1174;51.588;7.328;2023-04-25T08:33:16;9.07;;;2.27;;
2326;SDS011;1174;51.588;7.328;2023-04-25T08:35:46;3.40;;;1.50;;
2326;SDS011;1174;51.588;7.328;2023-04-25T08:38:13;3.30;;;1.93;;
2326;SDS011;1174;51.588;7.328;2023-04-25T08:40:41;5.70;;;3.93;;
2326;SDS011;1174;51.588;7.328;2023-04-25T08:43:10;3.60;;;2.30;;
2326;SDS011;1174;51.588;7.328;2023-04-25T08:45:41;7.43;;;3.10;;
2326;SDS011;1174;51.588;7.328;2023-04-25T08:48:10;14.40;;;3.20;;
2326;SDS011;1174;51.588;7.328;2023-04-25T08:50:38;5.07;;;2.03;;
2326;SDS011;1174;51.588;7.328;2023-04-25T08:53:08;5.60;;;2.67;;
2326;SDS011;1174;51.588;7.328;2023-04-25T08:55:38;2.90;;;1.60;;
2326;SDS011;1174;51.588;7.328;2023-04-25T08:58:08;1.73;;;1.40;;
2326;SDS011;1174;51.588;7.328;2023-04-25T09:00:37;3.67;;;2.03;;
2326;SDS011;1174;51.588;7.328;2023-04-25T09:03:05;9.20;;;1.73;;
2326;SDS011;1174;51.588;7.328;2023-04-25T09:05:33;2.30;;;2.03;;
2326;SDS011;1174;51.588;7.328;2023-04-25T09:08:01;3.60;;;1.77;;
2326;SDS011;1174;51.588;7.328;2023-04-25T09:10:31;8.30;;;1.63;;
2326;SDS011;1174;51.588;7.328;2023-04-25T09:13:05;5.20;;;1.90;;
2326;SDS011;1174;51.588;7.328;2023-04-25T09:15:47;4.43;;;1.90;;
2326;SDS011;1174;51.588;7.328;2023-04-25T09:18:27;6.03;;;2.63;;
2326;SDS011;1174;51.588;7.328;2023-04-25T09:21:04;2.13;;;1.93;;
2326;SDS011;1174;51.588;7.328;2023-04-25T09:23:41;17.30;;;2.37;;
2326;SDS011;1174;51.588;7.328;2023-04-25T09:26:10;2.20;;;1.87;;
2326;SDS011;1174;51.588;7.328;2023-04-25T09:28:42;3.00;;;1.57;;
2326;SDS011;1174;51.588;7.328;2023-04-25T09:31:09;8.03;;;2.50;;
2326;SDS011;1174;51.588;7.328;2023-04-25T09:33:38;4.13;;;1.80;;
2326;SDS011;1174;51.588;7.328;2023-04-25T09:36:07;7.40;;;2.20;;
2326;SDS011;1174;51.588;7.328;2023-04-25T09:38:39;1.80;;;1.40;;
2326;SDS011;1174;51.588;7.328;2023-04-25T09:41:09;3.30;;;1.80;;
2326;SDS011;1174;51.588;7.328;2023-04-25T09:43:38;5.47;;;2.23;;
2326;SDS011;1174;51.588;7.328;2023-04-25T09:46:07;3.47;;;1.50;;
2326;SDS011;1174;51.588;7.328;2023-04-25T09:48:36;2.03;;;1.30;;
2326;SDS011;1174;51.588;7.328;2023-04-25T09:51:05;4.20;;;1.23;;
2326;SDS011;1174;51.588;7.328;2023-04-25T09:53:33;2.73;;;1.47;;
2326;SDS011;1174;51.588;7.328;2023-04-25T09:56:02;3.83;;;1.20;;
2326;SDS011;1174;51.588;7.328;2023-04-25T09:58:32;2.77;;;1.60;;
2326;SDS011;1174;51.588;7.328;2023-04-25T10:01:05;1.23;;;0.90;;
2326;SDS011;1174;51.588;7.328;2023-04-25T10:03:36;5.17;;;2.33;;
2326;SDS011;1174;51.588;7.328;2023-04-25T10:06:11;3.10;;;1.90;;
2326;SDS011;1174;51.588;7.328;2023-04-25T10:08:40;3.70;;;1.63;;
2326;SDS011;1174;51.588;7.328;2023-04-25T10:11:10;8.83;;;2.20;;
2326;SDS011;1174;51.588;7.328;2023-04-25T10:13:40;2.00;;;1.37;;
2326;SDS011;1174;51.588;7.328;2023-04-25T10:16:09;5.40;;;1.80;;
2326;SDS011;1174;51.588;7.328;2023-04-25T10:18:36;2.57;;;1.90;;
2326;SDS011;1174;51.588;7.328;2023-04-25T10:21:07;7.63;;;1.67;;
2326;SDS011;1174;51.588;7.328;2023-04-25T10:23:35;2.37;;;1.20;;
2326;SDS011;1174;51.588;7.328;2023-04-25T10:26:04;1.87;;;1.27;;
2326;SDS011;1174;51.588;7.328;2023-04-25T10:28:45;3.80;;;1.67;;
2326;SDS011;1174;51.588;7.328;2023-04-25T10:31:21;2.23;;;1.47;;
2326;SDS011;1174;51.588;7.328;2023-04-25T10:33:48;4.07;;;1.67;;
2326;SDS011;1174;51.588;7.328;2023-04-25T10:36:18;1.83;;;1.30;;
2326;SDS011;1174;51.588;7.328;2023-04-25T10:38:47;16.67;;;2.50;;
2326;SDS011;1174;51.588;7.328;2023-04-25T10:41:18;3.40;;;1.50;;
2326;SDS011;1174;51.588;7.328;2023-04-25T10:43:46;3.10;;;2.13;;
2326;SDS011;1174;51.588;7.328;2023-04-25T10:46:15;2.40;;;1.43;;
2326;SDS011;1174;51.588;7.328;2023-04-25T10:48:47;1.60;;;1.23;;
2326;SDS011;1174;51.588;7.328;2023-04-25T10:51:23;1.20;;;0.90;;
2326;SDS011;1174;51.588;7.328;2023-04-25T10:53:58;2.50;;;1.10;;
2326;SDS011;1174;51.588;7.328;2023-04-25T10:56:27;4.30;;;1.57;;
2326;SDS011;1174;51.588;7.328;2023-04-25T10:59:04;2.20;;;1.53;;
2326;SDS011;1174;51.588;7.328;2023-04-25T11:01:35;8.10;;;1.60;;
2326;SDS011;1174;51.588;7.328;2023-04-25T11:04:04;2.20;;;1.07;;
2326;SDS011;1174;51.588;7.328;2023-04-25T11:06:34;1.70;;;1.60;;
2326;SDS011;1174;51.588;7.328;2023-04-25T11:09:13;1.60;;;1.47;;
2326;SDS011;1174;51.588;7.328;2023-04-25T11:11:40;5.50;;;1.50;;
2326;SDS011;1174;51.588;7.328;2023-04-25T11:14:07;1.63;;;1.53;;
2326;SDS011;1174;51.588;7.328;2023-04-25T11:16:34;1.93;;;1.50;;
2326;SDS011;1174;51.588;7.328;2023-04-25T11:19:02;3.00;;;1.53;;
2326;SDS011;1174;51.588;7.328;2023-04-25T11:21:29;3.20;;;1.10;;
2326;SDS011;1174;51.588;7.328;2023-04-25T11:23:59;6.70;;;1.30;;
2326;SDS011;1174;51.588;7.328;2023-04-25T11:26:27;3.83;;;1.37;;
2326;SDS011;1174;51.588;7.328;2023-04-25T11:28:56;3.67;;;1.90;;
2326;SDS011;1174;51.588;7.328;2023-04-25T11:31:24;1.50;;;1.07;;
2326;SDS011;1174;51.588;7.328;2023-04-25T11:33:53;5.10;;;1.67;;
2326;SDS011;1174;51.588;7.328;2023-04-25T11:36:22;1.20;;;1.00;;
2326;SDS011;1174;51.588;7.328;2023-04-25T11:38:49;1.70;;;1.00;;
2326;SDS011;1174;51.588;7.328;2023-04-25T11:41:19;1.80;;;1.07;;
2326;SDS011;1174;51.588;7.328;2023-04-25T11:43:48;2.60;;;1.23;;
2326;SDS011;1174;51.588;7.328;2023-04-25T11:46:17;4.93;;;1.40;;
2326;SDS011;1174;51.588;7.328;2023-04-25T11:48:45;1.13;;;0.80;;
2326;SDS011;1174;51.588;7.328;2023-04-25T11:51:14;1.20;;;0.87;;
2326;SDS011;1174;51.588;7.328;2023-04-25T11:53:41;1.20;;;1.03;;
2326;SDS011;1174;51.588;7.328;2023-04-25T11:56:12;2.77;;;1.10;;
2326;SDS011;1174;51.588;7.328;2023-04-25T11:58:58;1.10;;;0.80;;
2326;SDS011;1174;51.588;7.328;2023-04-25T12:01:27;2.60;;;1.20;;
2326;SDS011;1174;51.588;7.328;2023-04-25T12:03:56;4.33;;;1.10;;
2326;SDS011;1174;51.588;7.328;2023-04-25T12:06:36;3.10;;;1.10;;
2326;SDS011;1174;51.588;7.328;2023-04-25T12:09:15;2.00;;;1.07;;
2326;SDS011;1174;51.588;7.328;2023-04-25T12:11:44;10.20;;;1.33;;
2326;SDS011;1174;51.588;7.328;2023-04-25T12:14:24;2.80;;;2.27;;
2326;SDS011;1174;51.588;7.328;2023-04-25T12:16:52;3.83;;;1.33;;
2326;SDS011;1174;51.588;7.328;2023-04-25T12:19:22;1.20;;;0.80;;
2326;SDS011;1174;51.588;7.328;2023-04-25T12:21:49;2.80;;;1.10;;
2326;SDS011;1174;51.588;7.328;2023-04-25T12:24:17;1.50;;;0.93;;
2326;SDS011;1174;51.588;7.328;2023-04-25T12:26:50;3.50;;;1.23;;
2326;SDS011;1174;51.588;7.328;2023-04-25T12:29:20;1.10;;;0.70;;
2326;SDS011;1174;51.588;7.328;2023-04-25T12:31:50;2.03;;;1.10;;
2326;SDS011;1174;51.588;7.328;2023-04-25T12:34:18;1.80;;;1.00;;
2326;SDS011;1174;51.588;7.328;2023-04-25T12:36:47;1.20;;;0.90;;
2326;SDS011;1174;51.588;7.328;2023-04-25T12:39:17;1.87;;;1.33;;
2326;SDS011;1174;51.588;7.328;2023-04-25T12:41:44;1.17;;;0.90;;
2326;SDS011;1174;51.588;7.328;2023-04-25T12:44:12;2.07;;;1.20;;
2326;SDS011;1174;51.588;7.328;2023-04-25T12:46:39;1.83;;;1.20;;
2326;SDS011;1174;51.588;7.328;2023-04-25T12:49:09;2.43;;;1.37;;
2326;SDS011;1174;51.588;7.328;2023-04-25T12:51:37;1.60;;;1.20;;
2326;SDS011;1174;51.588;7.328;2023-04-25T12:54:05;2.90;;;1.00;;
2326;SDS011;1174;51.588;7.328;2023-04-25T12:56:33;2.60;;;0.83;;
2326;SDS011;1174;51.588;7.328;2023-04-25T12:59:03;4.27;;;1.10;;
2326;SDS011;1174;51.588;7.328;2023-04-25T13:01:30;6.03;;;1.00;;
2326;SDS011;1174;51.588;7.328;2023-04-25T13:03:59;2.33;;;0.80;;
2326;SDS011;1174;51.588;7.328;2023-04-25T13:06:28;1.97;;;0.80;;
2326;SDS011;1174;51.588;7.328;2023-04-25T13:08:56;1.97;;;0.90;;
2326;SDS011;1174;51.588;7.328;2023-04-25T13:11:23;1.30;;;1.07;;
2326;SDS011;1174;51.588;7.328;2023-04-25T13:13:50;1.57;;;1.20;;
2326;SDS011;1174;51.588;7.328;2023-04-25T13:16:17;6.10;;;1.83;;
2326;SDS011;1174;51.588;7.328;2023-04-25T13:18:45;3.00;;;1.97;;
2326;SDS011;1174;51.588;7.328;2023-04-25T13:21:12;8.60;;;1.20;;
2326;SDS011;1174;51.588;7.328;2023-04-25T13:23:41;2.10;;;1.10;;
2326;SDS011;1174;51.588;7.328;2023-04-25T13:26:09;4.60;;;1.43;;
2326;SDS011;1174;51.588;7.328;2023-04-25T13:28:36;2.80;;;1.20;;
2326;SDS011;1174;51.588;7.328;2023-04-25T13:31:05;4.50;;;1.53;;
2326;SDS011;1174;51.588;7.328;2023-04-25T13:33:32;1.93;;;1.00;;
2326;SDS011;1174;51.588;7.328;2023-04-25T13:36:00;1.10;;;0.80;;
2326;SDS011;1174;51.588;7.328;2023-04-25T13:38:27;1.40;;;1.10;;
2326;SDS011;1174;51.588;7.328;2023-04-25T13:40:57;2.20;;;1.50;;
2326;SDS011;1174;51.588;7.328;2023-04-25T13:43:24;4.73;;;1.20;;
2326;SDS011;1174;51.588;7.328;2023-04-25T13:45:54;1.23;;;0.80;;
2326;SDS011;1174;51.588;7.328;2023-04-25T13:48:23;1.40;;;1.00;;
2326;SDS011;1174;51.588;7.328;2023-04-25T13:50:51;7.90;;;1.53;;
2326;SDS011;1174;51.588;7.328;2023-04-25T13:53:18;1.53;;;1.10;;
2326;SDS011;1174;51.588;7.328;2023-04-25T13:55:46;3.90;;;1.50;;
2326;SDS011;1174;51.588;7.328;2023-04-25T13:58:16;1.30;;;1.00;;
2326;SDS011;1174;51.588;7.328;2023-04-25T14:00:45;4.33;;;1.20;;
2326;SDS011;1174;51.588;7.328;2023-04-25T14:03:13;2.43;;;1.60;;
2326;SDS011;1174;51.588;7.328;2023-04-25T14:05:40;2.43;;;1.27;;
2326;SDS011;1174;51.588;7.328;2023-04-25T14:08:07;1.50;;;1.40;;
2326;SDS011;1174;51.588;7.328;2023-04-25T14:10:37;1.70;;;1.00;;
2326;SDS011;1174;51.588;7.328;2023-04-25T14:13:04;7.70;;;1.30;;
2326;SDS011;1174;51.588;7.328;2023-04-25T14:15:41;1.60;;;1.00;;
2326;SDS011;1174;51.588;7.328;2023-04-25T14:18:08;1.63;;;1.10;;
2326;SDS011;1174;51.588;7.328;2023-04-25T14:20:39;2.23;;;2.03;;
2326;SDS011;1174;51.588;7.328;2023-04-25T14:23:08;2.27;;;1.10;;
2326;SDS011;1174;51.588;7.328;2023-04-25T14:25:38;2.30;;;1.17;;
2326;SDS011;1174;51.588;7.328;2023-04-25T14:28:07;9.70;;;1.53;;
2326;SDS011;1174;51.588;7.328;2023-04-25T14:30:35;1.20;;;0.90;;
2326;SDS011;1174;51.588;7.328;2023-04-25T14:33:09;1.87;;;1.00;;
2326;SDS011;1174;51.588;7.328;2023-04-25T14:35:41;2.07;;;1.60;;
2326;SDS011;1174;51.588;7.328;2023-04-25T14:38:10;2.37;;;1.80;;
2326;SDS011;1174;51.588;7.328;2023-04-25T14:40:37;1.97;;;1.67;;
2326;SDS011;1174;51.588;7.328;2023-04-25T14:43:04;2.07;;;1.00;;
2326;SDS011;1174;51.588;7.328;2023-04-25T14:45:33;1.60;;;1.20;;
2326;SDS011;1174;51.588;7.328;2023-04-25T14:48:00;4.60;;;1.33;;
2326;SDS011;1174;51.588;7.328;2023-04-25T14:50:29;1.40;;;1.10;;
2326;SDS011;1174;51.588;7.328;2023-04-25T14:52:56;1.10;;;0.87;;
2326;SDS011;1174;51.588;7.328;2023-04-25T14:55:25;6.57;;;1.70;;
2326;SDS011;1174;51.588;7.328;2023-04-25T14:57:53;1.33;;;1.23;;
2326;SDS011;1174;51.588;7.328;2023-04-25T15:00:21;2.47;;;1.40;;
2326;SDS011;1174;51.588;7.328;2023-04-25T15:02:48;6.17;;;2.07;;
2326;SDS011;1174;51.588;7.328;2023-04-25T15:05:15;1.33;;;1.00;;
2326;SDS011;1174;51.588;7.328;2023-04-25T15:07:44;2.00;;;1.80;;
2326;SDS011;1174;51.588;7.328;2023-04-25T15:10:13;2.10;;;1.00;;
2326;SDS011;1174;51.588;7.328;2023-04-25T15:12:41;1.70;;;1.37;;
2326;SDS011;1174;51.588;7.328;2023-04-25T15:15:11;1.43;;;1.27;;
2326;SDS011;1174;51.588;7.328;2023-04-25T15:17:38;3.97;;;1.27;;
2326;SDS011;1174;51.588;7.328;2023-04-25T15:20:07;1.20;;;0.93;;
2326;SDS011;1174;51.588;7.328;2023-04-25T15:22:36;2.10;;;1.03;;
2326;SDS011;1174;51.588;7.328;2023-04-25T15:25:06;1.20;;;1.00;;
2326;SDS011;1174;51.588;7.328;2023-04-25T15:27:33;1.53;;;1.10;;
2326;SDS011;1174;51.588;7.328;2023-04-25T15:30:03;3.90;;;1.03;;